sensor_id;sensor_type;location;lat;lon;timestamp;temperature;humidity
5621;DHT22;2832;50.864;12.186;2022-09-09T00:01:35;19.90;99.90
5621;DHT22;2832;50.864;12.186;2022-09-09T00:04:13;19.90;99.90
5621;DHT22;2832;50.864;12.186;2022-09-09T00:06:53;19.90;99.90
5621;DHT22;2832;50.864;12.186;2022-09-09T00:09:26;19.80;99.90
5621;DHT22;2832;50.864;12.186;2022-09-09T00:12:04;19.80;99.90
5621;DHT22;2832;50.864;12.186;2022-09-09T00:14:53;19.80;99.90
5621;DHT22;2832;50.864;12.186;2022-09-09T00:17:41;19.80;99.90
5621;DHT22;2832;50.864;12.186;2022-09-09T00:20:14;19.80;99.90
5621;DHT22;2832;50.864;12.186;2022-09-09T00:22:51;19.80;99.90
5621;DHT22;2832;50.864;12.186;2022-09-09T00:25:27;19.80;99.90
5621;DHT22;2832;50.864;12.186;2022-09-09T00:28:11;19.80;99.90
5621;DHT22;2832;50.864;12.186;2022-09-09T00:30:49;19.80;99.90
5621;DHT22;2832;50.864;12.186;2022-09-09T00:33:33;19.80;99.90
5621;DHT22;2832;50.864;12.186;2022-09-09T00:36:07;19.70;99.90
5621;DHT22;2832;50.864;12.186;2022-09-09T00:38:47;19.70;99.90
5621;DHT22;2832;50.864;12.186;2022-09-09T00:41:39;19.70;99.90
5621;DHT22;2832;50.864;12.186;2022-09-09T00:44:24;19.70;99.90
5621;DHT22;2832;50.864;12.186;2022-09-09T00:47:12;19.70;99.90
5621;DHT22;2832;50.864;12.186;2022-09-09T00:50:00;19.60;99.90
5621;DHT22;2832;50.864;12.186;2022-09-09T00:52:40;19.60;99.90
5621;DHT22;2832;50.864;12.186;2022-09-09T00:55:17;19.60;99.90
5621;DHT22;2832;50.864;12.186;2022-09-09T00:57:52;19.50;99.90
5621;DHT22;2832;50.864;12.186;2022-09-09T01:00:25;19.50;99.90
5621;DHT22;2832;50.864;12.186;2022-09-09T01:03:11;19.50;99.90
5621;DHT22;2832;50.864;12.186;2022-09-09T01:05:54;19.50;99.90
5621;DHT22;2832;50.864;12.186;2022-09-09T01:08:50;19.50;99.90
5621;DHT22;2832;50.864;12.186;2022-09-09T01:11:42;19.50;99.90
5621;DHT22;2832;50.864;12.186;2022-09-09T01:14:18;19.50;99.90
5621;DHT22;2832;50.864;12.186;2022-09-09T01:16:48;19.50;99.90
5621;DHT22;2832;50.864;12.186;2022-09-09T01:19:27;19.50;99.90
5621;DHT22;2832;50.864;12.186;2022-09-09T01:22:33;19.50;99.90
5621;DHT22;2832;50.864;12.186;2022-09-09T01:28:49;19.50;99.90
5621;DHT22;2832;50.864;12.186;2022-09-09T01:34:48;19.40;99.90
5621;DHT22;2832;50.864;12.186;2022-09-09T01:37:35;19.40;99.90
5621;DHT22;2832;50.864;12.186;2022-09-09T01:40:14;19.40;99.90
5621;DHT22;2832;50.864;12.186;2022-09-09T01:42:45;19.40;99.90
5621;DHT22;2832;50.864;12.186;2022-09-09T01:45:47;19.40;99.90
5621;DHT22;2832;50.864;12.186;2022-09-09T01:48:21;19.30;99.90
5621;DHT22;2832;50.864;12.186;2022-09-09T01:51:07;19.40;99.90
5621;DHT22;2832;50.864;12.186;2022-09-09T01:53:58;19.40;99.90
5621;DHT22;2832;50.864;12.186;2022-09-09T01:59:50;19.30;99.90
5621;DHT22;2832;50.864;12.186;2022-09-09T02:02:46;19.30;99.90
5621;DHT22;2832;50.864;12.186;2022-09-09T02:05:43;19.30;99.90
5621;DHT22;2832;50.864;12.186;2022-09-09T02:08:17;19.20;99.90
5621;DHT22;2832;50.864;12.186;2022-09-09T02:10:55;19.20;99.90
5621;DHT22;2832;50.864;12.186;2022-09-09T02:13:54;19.20;99.90
5621;DHT22;2832;50.864;12.186;2022-09-09T02:16:47;19.20;99.90
5621;DHT22;2832;50.864;12.186;2022-09-09T02:19:58;19.20;99.90
5621;DHT22;2832;50.864;12.186;2022-09-09T02:22:44;19.20;99.90
5621;DHT22;2832;50.864;12.186;2022-09-09T02:25:15;19.30;99.90
5621;DHT22;2832;50.864;12.186;2022-09-09T02:27:45;19.30;99.90
5621;DHT22;2832;50.864;12.186;2022-09-09T02:30:18;19.30;99.90
5621;DHT22;2832;50.864;12.186;2022-09-09T02:32:56;19.30;99.90
5621;DHT22;2832;50.864;12.186;2022-09-09T02:35:36;19.20;99.90
5621;DHT22;2832;50.864;12.186;2022-09-09T02:38:13;19.20;99.90
5621;DHT22;2832;50.864;12.186;2022-09-09T02:40:47;19.20;99.90
5621;DHT22;2832;50.864;12.186;2022-09-09T02:43:18;19.20;99.90
5621;DHT22;2832;50.864;12.186;2022-09-09T02:45:54;19.20;99.90
5621;DHT22;2832;50.864;12.186;2022-09-09T02:48:39;19.30;99.90
5621;DHT22;2832;50.864;12.186;2022-09-09T02:51:22;19.30;99.90
5621;DHT22;2832;50.864;12.186;2022-09-09T02:54:07;19.20;99.90
5621;DHT22;2832;50.864;12.186;2022-09-09T02:56:46;19.30;99.90
5621;DHT22;2832;50.864;12.186;2022-09-09T02:59:20;19.30;99.90
5621;DHT22;2832;50.864;12.186;2022-09-09T03:01:57;19.30;99.90
5621;DHT22;2832;50.864;12.186;2022-09-09T03:04:31;19.30;99.90
5621;DHT22;2832;50.864;12.186;2022-09-09T03:07:04;19.30;99.90
5621;DHT22;2832;50.864;12.186;2022-09-09T03:09:36;19.20;99.90
5621;DHT22;2832;50.864;12.186;2022-09-09T03:12:07;19.20;99.90
5621;DHT22;2832;50.864;12.186;2022-09-09T03:14:38;19.20;99.90
5621;DHT22;2832;50.864;12.186;2022-09-09T03:17:07;19.20;99.90
5621;DHT22;2832;50.864;12.186;2022-09-09T03:23:00;19.20;99.90
5621;DHT22;2832;50.864;12.186;2022-09-09T03:25:48;19.20;99.90
5621;DHT22;2832;50.864;12.186;2022-09-09T03:32:12;19.10;99.90
5621;DHT22;2832;50.864;12.186;2022-09-09T03:41:57;18.80;99.90
5621;DHT22;2832;50.864;12.186;2022-09-09T03:44:48;18.60;99.90
5621;DHT22;2832;50.864;12.186;2022-09-09T03:47:33;18.60;99.90
5621;DHT22;2832;50.864;12.186;2022-09-09T03:54:11;18.40;99.90
5621;DHT22;2832;50.864;12.186;2022-09-09T04:01:00;18.40;99.90
5621;DHT22;2832;50.864;12.186;2022-09-09T04:03:55;18.30;99.90
5621;DHT22;2832;50.864;12.186;2022-09-09T04:06:41;18.30;99.90
5621;DHT22;2832;50.864;12.186;2022-09-09T04:09:28;18.30;99.90
5621;DHT22;2832;50.864;12.186;2022-09-09T04:12:05;18.30;99.90
5621;DHT22;2832;50.864;12.186;2022-09-09T04:14:46;18.30;99.90
5621;DHT22;2832;50.864;12.186;2022-09-09T04:17:19;18.30;99.90
5621;DHT22;2832;50.864;12.186;2022-09-09T04:19:58;18.20;99.90
5621;DHT22;2832;50.864;12.186;2022-09-09T04:22:40;18.20;99.90
5621;DHT22;2832;50.864;12.186;2022-09-09T04:25:18;18.20;99.90
5621;DHT22;2832;50.864;12.186;2022-09-09T04:27:57;18.20;99.90
5621;DHT22;2832;50.864;12.186;2022-09-09T04:30:40;18.10;99.90
5621;DHT22;2832;50.864;12.186;2022-09-09T04:37:10;18.20;99.90
5621;DHT22;2832;50.864;12.186;2022-09-09T04:39:50;18.20;99.90
5621;DHT22;2832;50.864;12.186;2022-09-09T04:42:38;18.10;99.90
5621;DHT22;2832;50.864;12.186;2022-09-09T04:45:18;18.10;99.90
5621;DHT22;2832;50.864;12.186;2022-09-09T04:47:55;18.10;99.90
5621;DHT22;2832;50.864;12.186;2022-09-09T04:50:56;18.10;99.90
5621;DHT22;2832;50.864;12.186;2022-09-09T04:54:08;18.10;99.90
5621;DHT22;2832;50.864;12.186;2022-09-09T04:57:09;18.10;99.90
5621;DHT22;2832;50.864;12.186;2022-09-09T04:59:48;18.20;99.90
5621;DHT22;2832;50.864;12.186;2022-09-09T05:02:23;18.10;99.90
5621;DHT22;2832;50.864;12.186;2022-09-09T05:05:00;18.10;99.90
5621;DHT22;2832;50.864;12.186;2022-09-09T05:07:54;18.10;99.90
5621;DHT22;2832;50.864;12.186;2022-09-09T05:13:55;18.10;99.90
5621;DHT22;2832;50.864;12.186;2022-09-09T05:23:20;18.10;99.90
5621;DHT22;2832;50.864;12.186;2022-09-09T05:33:43;18.20;99.90
5621;DHT22;2832;50.864;12.186;2022-09-09T05:36:23;18.10;99.90
5621;DHT22;2832;50.864;12.186;2022-09-09T05:39:29;18.10;99.90
5621;DHT22;2832;50.864;12.186;2022-09-09T05:42:13;18.10;99.90
5621;DHT22;2832;50.864;12.186;2022-09-09T07:32:28;18.40;99.90
5621;DHT22;2832;50.864;12.186;2022-09-09T07:35:09;18.50;99.90
5621;DHT22;2832;50.864;12.186;2022-09-09T07:44:44;18.50;99.90
5621;DHT22;2832;50.864;12.186;2022-09-09T07:48:17;18.50;99.90
5621;DHT22;2832;50.864;12.186;2022-09-09T07:50:49;18.50;99.90
5621;DHT22;2832;50.864;12.186;2022-09-09T07:53:35;18.50;99.90
5621;DHT22;2832;50.864;12.186;2022-09-09T08:06:58;18.60;99.90
5621;DHT22;2832;50.864;12.186;2022-09-09T08:09:48;18.60;99.90
5621;DHT22;2832;50.864;12.186;2022-09-09T08:12:33;18.70;99.90
5621;DHT22;2832;50.864;12.186;2022-09-09T08:15:39;18.70;99.90
5621;DHT22;2832;50.864;12.186;2022-09-09T08:18:40;18.70;99.90
5621;DHT22;2832;50.864;12.186;2022-09-09T08:21:58;18.80;99.90
5621;DHT22;2832;50.864;12.186;2022-09-09T08:24:49;18.80;99.90
5621;DHT22;2832;50.864;12.186;2022-09-09T08:27:52;18.80;99.90
5621;DHT22;2832;50.864;12.186;2022-09-09T08:30:45;18.80;99.90
5621;DHT22;2832;50.864;12.186;2022-09-09T08:33:28;18.80;99.90
5621;DHT22;2832;50.864;12.186;2022-09-09T08:59:37;19.10;99.90
5621;DHT22;2832;50.864;12.186;2022-09-09T09:02:31;19.10;99.90
5621;DHT22;2832;50.864;12.186;2022-09-09T09:05:22;19.10;99.90
5621;DHT22;2832;50.864;12.186;2022-09-09T09:08:06;19.10;99.90
5621;DHT22;2832;50.864;12.186;2022-09-09T09:10:53;19.20;99.90
5621;DHT22;2832;50.864;12.186;2022-09-09T09:13:44;19.20;99.90
5621;DHT22;2832;50.864;12.186;2022-09-09T09:19:23;19.30;99.90
5621;DHT22;2832;50.864;12.186;2022-09-09T09:21:59;19.30;99.90
5621;DHT22;2832;50.864;12.186;2022-09-09T09:24:51;19.30;99.90
5621;DHT22;2832;50.864;12.186;2022-09-09T09:27:36;19.40;99.90
5621;DHT22;2832;50.864;12.186;2022-09-09T09:30:16;19.40;99.90
5621;DHT22;2832;50.864;12.186;2022-09-09T09:32:58;19.40;99.90
5621;DHT22;2832;50.864;12.186;2022-09-09T09:35:39;19.40;99.90
5621;DHT22;2832;50.864;12.186;2022-09-09T09:38:21;19.40;99.90
5621;DHT22;2832;50.864;12.186;2022-09-09T09:40:51;19.40;99.90
5621;DHT22;2832;50.864;12.186;2022-09-09T09:43:35;19.50;99.90
5621;DHT22;2832;50.864;12.186;2022-09-09T09:46:22;19.50;99.90
5621;DHT22;2832;50.864;12.186;2022-09-09T09:48:58;19.50;99.90
5621;DHT22;2832;50.864;12.186;2022-09-09T09:51:29;19.70;99.90
5621;DHT22;2832;50.864;12.186;2022-09-09T09:54:15;19.60;99.90
5621;DHT22;2832;50.864;12.186;2022-09-09T09:56:50;19.60;99.90
5621;DHT22;2832;50.864;12.186;2022-09-09T09:59:34;19.60;99.90
5621;DHT22;2832;50.864;12.186;2022-09-09T10:02:18;19.60;99.90
5621;DHT22;2832;50.864;12.186;2022-09-09T10:05:14;19.60;99.90
5621;DHT22;2832;50.864;12.186;2022-09-09T10:08:14;19.60;99.90
5621;DHT22;2832;50.864;12.186;2022-09-09T10:14:08;19.50;99.90
5621;DHT22;2832;50.864;12.186;2022-09-09T10:16:56;19.60;99.90
5621;DHT22;2832;50.864;12.186;2022-09-09T10:19:32;19.60;99.90
5621;DHT22;2832;50.864;12.186;2022-09-09T10:22:25;19.60;99.90
5621;DHT22;2832;50.864;12.186;2022-09-09T10:25:26;19.60;99.90
5621;DHT22;2832;50.864;12.186;2022-09-09T10:28:28;19.60;99.90
5621;DHT22;2832;50.864;12.186;2022-09-09T10:31:15;19.60;99.90
5621;DHT22;2832;50.864;12.186;2022-09-09T10:34:05;19.60;99.90
5621;DHT22;2832;50.864;12.186;2022-09-09T10:37:07;19.70;99.90
5621;DHT22;2832;50.864;12.186;2022-09-09T10:39:53;19.70;99.90
5621;DHT22;2832;50.864;12.186;2022-09-09T10:42:37;19.70;99.90
5621;DHT22;2832;50.864;12.186;2022-09-09T10:45:17;19.80;99.90
5621;DHT22;2832;50.864;12.186;2022-09-09T10:48:16;19.80;99.90
5621;DHT22;2832;50.864;12.186;2022-09-09T10:51:11;19.80;99.90
5621;DHT22;2832;50.864;12.186;2022-09-09T10:54:23;19.80;99.90
5621;DHT22;2832;50.864;12.186;2022-09-09T10:57:21;19.90;99.90
5621;DHT22;2832;50.864;12.186;2022-09-09T11:00:01;19.90;99.90
5621;DHT22;2832;50.864;12.186;2022-09-09T11:02:36;19.90;99.90
5621;DHT22;2832;50.864;12.186;2022-09-09T11:05:26;20.00;99.90
5621;DHT22;2832;50.864;12.186;2022-09-09T11:08:10;19.90;99.90
5621;DHT22;2832;50.864;12.186;2022-09-09T11:10:58;20.00;99.90
5621;DHT22;2832;50.864;12.186;2022-09-09T11:13:38;20.00;99.90
5621;DHT22;2832;50.864;12.186;2022-09-09T11:16:29;20.00;99.90
5621;DHT22;2832;50.864;12.186;2022-09-09T11:19:17;20.10;99.90
5621;DHT22;2832;50.864;12.186;2022-09-09T11:21:56;20.10;99.90
5621;DHT22;2832;50.864;12.186;2022-09-09T11:24:35;20.10;99.90
5621;DHT22;2832;50.864;12.186;2022-09-09T11:27:13;20.10;99.90
5621;DHT22;2832;50.864;12.186;2022-09-09T11:30:15;20.10;99.90
5621;DHT22;2832;50.864;12.186;2022-09-09T11:33:18;20.10;99.90
5621;DHT22;2832;50.864;12.186;2022-09-09T11:39:14;20.20;99.90
5621;DHT22;2832;50.864;12.186;2022-09-09T11:41:47;20.20;99.90
5621;DHT22;2832;50.864;12.186;2022-09-09T11:44:19;20.50;99.90
5621;DHT22;2832;50.864;12.186;2022-09-09T11:46:54;20.50;99.90
5621;DHT22;2832;50.864;12.186;2022-09-09T11:49:45;20.40;99.90
5621;DHT22;2832;50.864;12.186;2022-09-09T11:52:22;20.40;99.90
5621;DHT22;2832;50.864;12.186;2022-09-09T11:55:07;20.40;99.90
5621;DHT22;2832;50.864;12.186;2022-09-09T11:57:40;20.40;99.90
5621;DHT22;2832;50.864;12.186;2022-09-09T12:00:30;20.40;99.90
5621;DHT22;2832;50.864;12.186;2022-09-09T12:03:02;20.40;99.90
5621;DHT22;2832;50.864;12.186;2022-09-09T12:05:46;20.50;99.90
5621;DHT22;2832;50.864;12.186;2022-09-09T12:08:22;20.80;99.90
5621;DHT22;2832;50.864;12.186;2022-09-09T12:10:54;20.70;99.90
5621;DHT22;2832;50.864;12.186;2022-09-09T12:13:28;20.70;99.90
5621;DHT22;2832;50.864;12.186;2022-09-09T12:16:00;20.70;99.90
5621;DHT22;2832;50.864;12.186;2022-09-09T12:18:36;20.70;99.90
5621;DHT22;2832;50.864;12.186;2022-09-09T12:21:18;20.70;99.90
5621;DHT22;2832;50.864;12.186;2022-09-09T12:23:54;20.70;99.90
5621;DHT22;2832;50.864;12.186;2022-09-09T12:26:37;20.70;99.90
5621;DHT22;2832;50.864;12.186;2022-09-09T12:29:21;20.80;99.90
5621;DHT22;2832;50.864;12.186;2022-09-09T12:32:00;20.80;99.90
5621;DHT22;2832;50.864;12.186;2022-09-09T12:34:40;20.70;99.90
5621;DHT22;2832;50.864;12.186;2022-09-09T12:37:24;20.70;99.90
5621;DHT22;2832;50.864;12.186;2022-09-09T12:42:48;20.90;99.90
5621;DHT22;2832;50.864;12.186;2022-09-09T12:45:37;21.00;99.90
5621;DHT22;2832;50.864;12.186;2022-09-09T12:48:10;21.10;99.90
5621;DHT22;2832;50.864;12.186;2022-09-09T12:50:56;21.20;99.90
5621;DHT22;2832;50.864;12.186;2022-09-09T12:53:33;21.30;99.90
5621;DHT22;2832;50.864;12.186;2022-09-09T12:56:08;21.10;99.90
5621;DHT22;2832;50.864;12.186;2022-09-09T12:58:46;21.10;99.90
5621;DHT22;2832;50.864;12.186;2022-09-09T13:01:22;21.00;99.90
5621;DHT22;2832;50.864;12.186;2022-09-09T13:03:53;21.00;99.90
5621;DHT22;2832;50.864;12.186;2022-09-09T13:06:24;20.90;99.90
5621;DHT22;2832;50.864;12.186;2022-09-09T13:09:03;20.90;99.90
5621;DHT22;2832;50.864;12.186;2022-09-09T13:11:47;20.90;99.90
5621;DHT22;2832;50.864;12.186;2022-09-09T13:14:25;21.00;99.90
5621;DHT22;2832;50.864;12.186;2022-09-09T13:17:05;21.00;99.90
5621;DHT22;2832;50.864;12.186;2022-09-09T13:19:44;21.00;99.90
5621;DHT22;2832;50.864;12.186;2022-09-09T13:22:13;21.00;99.90
5621;DHT22;2832;50.864;12.186;2022-09-09T13:24:44;21.00;99.90
5621;DHT22;2832;50.864;12.186;2022-09-09T13:27:28;21.00;99.90
5621;DHT22;2832;50.864;12.186;2022-09-09T13:30:20;21.00;99.90
5621;DHT22;2832;50.864;12.186;2022-09-09T13:33:05;21.00;99.90
5621;DHT22;2832;50.864;12.186;2022-09-09T13:35:46;21.00;99.90
5621;DHT22;2832;50.864;12.186;2022-09-09T13:38:16;21.00;99.90
5621;DHT22;2832;50.864;12.186;2022-09-09T13:41:00;21.00;99.90
5621;DHT22;2832;50.864;12.186;2022-09-09T13:43:38;21.00;99.90
5621;DHT22;2832;50.864;12.186;2022-09-09T13:46:28;21.00;99.90
5621;DHT22;2832;50.864;12.186;2022-09-09T13:49:00;21.00;99.90
5621;DHT22;2832;50.864;12.186;2022-09-09T13:51:40;21.10;99.90
5621;DHT22;2832;50.864;12.186;2022-09-09T13:54:15;21.10;99.90
5621;DHT22;2832;50.864;12.186;2022-09-09T13:56:46;21.10;99.90
5621;DHT22;2832;50.864;12.186;2022-09-09T13:59:21;21.10;99.90
5621;DHT22;2832;50.864;12.186;2022-09-09T14:01:58;21.20;99.90
5621;DHT22;2832;50.864;12.186;2022-09-09T14:04:30;21.20;99.90
5621;DHT22;2832;50.864;12.186;2022-09-09T14:07:01;21.10;99.90
5621;DHT22;2832;50.864;12.186;2022-09-09T14:09:30;21.10;99.90
5621;DHT22;2832;50.864;12.186;2022-09-09T14:12:12;21.10;99.90
5621;DHT22;2832;50.864;12.186;2022-09-09T14:14:43;21.10;99.90
5621;DHT22;2832;50.864;12.186;2022-09-09T14:17:18;21.10;99.90
5621;DHT22;2832;50.864;12.186;2022-09-09T14:20:03;21.10;99.90
5621;DHT22;2832;50.864;12.186;2022-09-09T14:22:42;21.20;99.90
5621;DHT22;2832;50.864;12.186;2022-09-09T14:25:16;21.20;99.90
5621;DHT22;2832;50.864;12.186;2022-09-09T14:27:47;21.10;99.90
5621;DHT22;2832;50.864;12.186;2022-09-09T14:30:18;21.10;99.90
5621;DHT22;2832;50.864;12.186;2022-09-09T14:32:46;21.10;99.90
5621;DHT22;2832;50.864;12.186;2022-09-09T14:35:31;21.20;99.90
5621;DHT22;2832;50.864;12.186;2022-09-09T14:38:19;21.20;99.90
5621;DHT22;2832;50.864;12.186;2022-09-09T14:41:02;21.20;99.90
5621;DHT22;2832;50.864;12.186;2022-09-09T14:43:38;21.20;99.90
5621;DHT22;2832;50.864;12.186;2022-09-09T14:46:08;21.20;99.90
5621;DHT22;2832;50.864;12.186;2022-09-09T14:48:43;21.20;99.90
5621;DHT22;2832;50.864;12.186;2022-09-09T14:51:36;21.20;99.90
5621;DHT22;2832;50.864;12.186;2022-09-09T14:54:35;21.20;99.90
5621;DHT22;2832;50.864;12.186;2022-09-09T14:57:09;21.20;99.90
5621;DHT22;2832;50.864;12.186;2022-09-09T14:59:40;21.20;99.90
5621;DHT22;2832;50.864;12.186;2022-09-09T15:02:17;21.30;99.90
5621;DHT22;2832;50.864;12.186;2022-09-09T15:04:58;21.30;99.90
5621;DHT22;2832;50.864;12.186;2022-09-09T15:10:32;21.40;99.90
5621;DHT22;2832;50.864;12.186;2022-09-09T15:13:25;21.40;99.90
5621;DHT22;2832;50.864;12.186;2022-09-09T15:16:25;21.40;99.90
5621;DHT22;2832;50.864;12.186;2022-09-09T15:19:03;21.40;99.90
5621;DHT22;2832;50.864;12.186;2022-09-09T15:21:39;21.40;99.90
5621;DHT22;2832;50.864;12.186;2022-09-09T15:24:25;21.40;99.90
5621;DHT22;2832;50.864;12.186;2022-09-09T15:26:56;21.40;99.90
5621;DHT22;2832;50.864;12.186;2022-09-09T15:29:32;21.40;99.90
5621;DHT22;2832;50.864;12.186;2022-09-09T15:32:26;21.40;99.90
5621;DHT22;2832;50.864;12.186;2022-09-09T15:35:02;21.40;99.90
5621;DHT22;2832;50.864;12.186;2022-09-09T15:37:48;21.40;99.90
5621;DHT22;2832;50.864;12.186;2022-09-09T15:40:25;21.40;99.90
5621;DHT22;2832;50.864;12.186;2022-09-09T15:43:12;21.40;99.90
5621;DHT22;2832;50.864;12.186;2022-09-09T15:46:29;21.40;99.90
5621;DHT22;2832;50.864;12.186;2022-09-09T15:49:29;21.40;99.80
5621;DHT22;2832;50.864;12.186;2022-09-09T15:52:03;21.40;99.60
5621;DHT22;2832;50.864;12.186;2022-09-09T15:54:47;21.50;99.60
5621;DHT22;2832;50.864;12.186;2022-09-09T15:57:48;21.40;99.60
5621;DHT22;2832;50.864;12.186;2022-09-09T16:00:33;21.50;99.70
5621;DHT22;2832;50.864;12.186;2022-09-09T16:03:06;21.50;99.70
5621;DHT22;2832;50.864;12.186;2022-09-09T16:05:35;21.50;99.70
5621;DHT22;2832;50.864;12.186;2022-09-09T16:08:08;21.50;99.70
5621;DHT22;2832;50.864;12.186;2022-09-09T16:10:44;21.50;99.60
5621;DHT22;2832;50.864;12.186;2022-09-09T16:13:13;21.50;99.70
5621;DHT22;2832;50.864;12.186;2022-09-09T16:16:05;21.50;99.80
5621;DHT22;2832;50.864;12.186;2022-09-09T16:19:06;21.50;99.90
5621;DHT22;2832;50.864;12.186;2022-09-09T16:21:59;21.50;99.80
5621;DHT22;2832;50.864;12.186;2022-09-09T16:24:53;21.50;99.50
5621;DHT22;2832;50.864;12.186;2022-09-09T16:27:33;21.50;99.20
5621;DHT22;2832;50.864;12.186;2022-09-09T16:30:09;21.50;99.10
5621;DHT22;2832;50.864;12.186;2022-09-09T16:36:14;21.50;99.20
5621;DHT22;2832;50.864;12.186;2022-09-09T16:39:23;21.50;98.80
5621;DHT22;2832;50.864;12.186;2022-09-09T16:42:07;21.50;99.00
5621;DHT22;2832;50.864;12.186;2022-09-09T16:44:39;21.50;99.40
5621;DHT22;2832;50.864;12.186;2022-09-09T16:47:14;21.50;99.60
5621;DHT22;2832;50.864;12.186;2022-09-09T16:50:04;21.50;99.80
5621;DHT22;2832;50.864;12.186;2022-09-09T16:52:37;21.50;99.90
5621;DHT22;2832;50.864;12.186;2022-09-09T16:59:08;21.50;99.90
5621;DHT22;2832;50.864;12.186;2022-09-09T17:02:19;21.60;99.90
5621;DHT22;2832;50.864;12.186;2022-09-09T17:05:20;21.60;99.90
5621;DHT22;2832;50.864;12.186;2022-09-09T17:08:16;21.60;99.90
5621;DHT22;2832;50.864;12.186;2022-09-09T17:11:03;21.50;99.90
5621;DHT22;2832;50.864;12.186;2022-09-09T17:14:12;21.50;99.90
5621;DHT22;2832;50.864;12.186;2022-09-09T17:17:38;21.60;99.90
5621;DHT22;2832;50.864;12.186;2022-09-09T17:24:40;21.50;99.90
5621;DHT22;2832;50.864;12.186;2022-09-09T17:30:08;21.50;99.90
5621;DHT22;2832;50.864;12.186;2022-09-09T17:37:45;21.40;99.90
5621;DHT22;2832;50.864;12.186;2022-09-09T17:40:48;21.40;99.90
5621;DHT22;2832;50.864;12.186;2022-09-09T17:43:45;21.50;99.90
5621;DHT22;2832;50.864;12.186;2022-09-09T17:46:38;21.50;99.90
5621;DHT22;2832;50.864;12.186;2022-09-09T17:50:24;21.50;99.90
5621;DHT22;2832;50.864;12.186;2022-09-09T17:59:36;21.40;99.90
5621;DHT22;2832;50.864;12.186;2022-09-09T18:02:24;21.40;99.90
5621;DHT22;2832;50.864;12.186;2022-09-09T18:05:06;21.40;99.90
5621;DHT22;2832;50.864;12.186;2022-09-09T18:07:42;21.50;99.90
5621;DHT22;2832;50.864;12.186;2022-09-09T18:10:33;21.50;99.90
5621;DHT22;2832;50.864;12.186;2022-09-09T18:13:10;21.50;99.90
5621;DHT22;2832;50.864;12.186;2022-09-09T18:16:06;21.50;99.90
5621;DHT22;2832;50.864;12.186;2022-09-09T18:18:47;21.50;99.90
5621;DHT22;2832;50.864;12.186;2022-09-09T18:24:38;21.50;99.90
5621;DHT22;2832;50.864;12.186;2022-09-09T18:30:21;21.40;99.90
5621;DHT22;2832;50.864;12.186;2022-09-09T18:43:42;21.30;99.90
5621;DHT22;2832;50.864;12.186;2022-09-09T18:46:57;21.30;99.90
5621;DHT22;2832;50.864;12.186;2022-09-09T18:52:53;21.30;99.90
5621;DHT22;2832;50.864;12.186;2022-09-09T18:56:17;21.40;99.90
5621;DHT22;2832;50.864;12.186;2022-09-09T20:50:03;21.00;99.90
5621;DHT22;2832;50.864;12.186;2022-09-09T20:52:46;21.00;99.90
5621;DHT22;2832;50.864;12.186;2022-09-09T20:55:31;21.00;99.90
5621;DHT22;2832;50.864;12.186;2022-09-09T20:58:04;21.00;99.90
5621;DHT22;2832;50.864;12.186;2022-09-09T21:00:33;21.00;99.90
5621;DHT22;2832;50.864;12.186;2022-09-09T21:03:07;20.90;99.90
5621;DHT22;2832;50.864;12.186;2022-09-09T21:09:06;20.90;99.90
5621;DHT22;2832;50.864;12.186;2022-09-09T21:11:34;20.80;99.90
5621;DHT22;2832;50.864;12.186;2022-09-09T21:14:04;20.80;99.90
5621;DHT22;2832;50.864;12.186;2022-09-09T21:16:34;20.80;99.90
5621;DHT22;2832;50.864;12.186;2022-09-09T21:19:06;20.80;99.90
5621;DHT22;2832;50.864;12.186;2022-09-09T21:21:35;20.80;99.90
5621;DHT22;2832;50.864;12.186;2022-09-09T21:24:04;20.80;99.90
5621;DHT22;2832;50.864;12.186;2022-09-09T21:26:33;20.80;99.90
5621;DHT22;2832;50.864;12.186;2022-09-09T21:29:03;20.80;99.90
5621;DHT22;2832;50.864;12.186;2022-09-09T21:31:31;20.80;99.90
5621;DHT22;2832;50.864;12.186;2022-09-09T21:34:00;20.80;99.90
5621;DHT22;2832;50.864;12.186;2022-09-09T21:36:31;20.90;99.90
5621;DHT22;2832;50.864;12.186;2022-09-09T21:38:59;20.90;99.90
5621;DHT22;2832;50.864;12.186;2022-09-09T21:41:34;20.80;99.90
5621;DHT22;2832;50.864;12.186;2022-09-09T21:44:03;20.80;99.90
5621;DHT22;2832;50.864;12.186;2022-09-09T21:46:32;20.80;99.90
5621;DHT22;2832;50.864;12.186;2022-09-09T21:49:00;20.80;99.90
5621;DHT22;2832;50.864;12.186;2022-09-09T21:51:30;20.80;99.90
5621;DHT22;2832;50.864;12.186;2022-09-09T22:53:48;20.40;99.90
5621;DHT22;2832;50.864;12.186;2022-09-09T22:56:20;20.40;99.90
5621;DHT22;2832;50.864;12.186;2022-09-09T22:58:53;20.40;99.90
5621;DHT22;2832;50.864;12.186;2022-09-09T23:01:25;20.40;99.90
5621;DHT22;2832;50.864;12.186;2022-09-09T23:03:57;20.40;99.90
5621;DHT22;2832;50.864;12.186;2022-09-09T23:06:28;20.30;99.90
5621;DHT22;2832;50.864;12.186;2022-09-09T23:09:06;20.30;99.90
5621;DHT22;2832;50.864;12.186;2022-09-09T23:11:38;20.30;99.90
5621;DHT22;2832;50.864;12.186;2022-09-09T23:14:10;20.30;99.90
5621;DHT22;2832;50.864;12.186;2022-09-09T23:16:43;20.30;99.90
5621;DHT22;2832;50.864;12.186;2022-09-09T23:19:17;20.20;99.90
5621;DHT22;2832;50.864;12.186;2022-09-09T23:21:50;20.20;99.90
5621;DHT22;2832;50.864;12.186;2022-09-09T23:24:46;20.20;99.90
5621;DHT22;2832;50.864;12.186;2022-09-09T23:27:21;20.10;99.90
5621;DHT22;2832;50.864;12.186;2022-09-09T23:29:52;20.10;99.90
5621;DHT22;2832;50.864;12.186;2022-09-09T23:32:31;20.10;99.90
5621;DHT22;2832;50.864;12.186;2022-09-09T23:35:00;20.10;99.90
5621;DHT22;2832;50.864;12.186;2022-09-09T23:37:39;20.20;99.90
5621;DHT22;2832;50.864;12.186;2022-09-09T23:40:21;20.10;99.90
5621;DHT22;2832;50.864;12.186;2022-09-09T23:42:51;20.10;99.90
5621;DHT22;2832;50.864;12.186;2022-09-09T23:45:22;20.10;99.90
5621;DHT22;2832;50.864;12.186;2022-09-09T23:47:50;20.10;99.90
5621;DHT22;2832;50.864;12.186;2022-09-09T23:50:21;20.10;99.90
5621;DHT22;2832;50.864;12.186;2022-09-09T23:52:52;20.00;99.90
